sensor_id;sensor_type;location;lat;lon;timestamp;pressure;altitude;pressure_sealevel;temperature;humidity
9059;BME280;4564;42.034;25.834;2023-12-20T00:00:08;100703.41;;;0.16;100.00
9059;BME280;4564;42.034;25.834;2023-12-20T00:02:36;100701.13;;;0.23;100.00
9059;BME280;4564;42.034;25.834;2023-12-20T00:05:02;100705.31;;;0.14;100.00
9059;BME280;4564;42.034;25.834;2023-12-20T00:07:29;100695.72;;;0.12;100.00
9059;BME280;4564;42.034;25.834;2023-12-20T00:09:55;100703.19;;;0.07;100.00
9059;BME280;4564;42.034;25.834;2023-12-20T00:12:22;100691.81;;;0.05;100.00
9059;BME280;4564;42.034;25.834;2023-12-20T00:14:49;100690.44;;;-0.01;100.00
9059;BME280;4564;42.034;25.834;2023-12-20T00:17:15;100687.00;;;-0.03;100.00
9059;BME280;4564;42.034;25.834;2023-12-20T00:19:43;100687.00;;;-0.03;100.00
9059;BME280;4564;42.034;25.834;2023-12-20T00:22:10;100681.00;;;0.06;100.00
9059;BME280;4564;42.034;25.834;2023-12-20T00:24:37;100681.41;;;0.13;100.00
9059;BME280;4564;42.034;25.834;2023-12-20T00:27:03;100685.91;;;0.12;100.00
9059;BME280;4564;42.034;25.834;2023-12-20T00:29:30;100679.94;;;0.09;100.00
9059;BME280;4564;42.034;25.834;2023-12-20T00:31:56;100675.13;;;0.14;100.00
9059;BME280;4564;42.034;25.834;2023-12-20T00:34:23;100675.88;;;0.16;100.00
9059;BME280;4564;42.034;25.834;2023-12-20T00:36:51;100671.69;;;0.12;100.00
9059;BME280;4564;42.034;25.834;2023-12-20T00:39:17;100673.75;;;0.08;100.00
9059;BME280;4564;42.034;25.834;2023-12-20T00:41:44;100670.03;;;0.11;100.00
9059;BME280;4564;42.034;25.834;2023-12-20T00:44:10;100664.00;;;0.20;100.00
9059;BME280;4564;42.034;25.834;2023-12-20T00:46:37;100664.97;;;0.19;100.00
9059;BME280;4564;42.034;25.834;2023-12-20T00:49:03;100662.41;;;0.17;100.00
9059;BME280;4564;42.034;25.834;2023-12-20T00:51:30;100663.22;;;0.30;100.00
9059;BME280;4564;42.034;25.834;2023-12-20T00:53:58;100666.41;;;0.35;100.00
9059;BME280;4564;42.034;25.834;2023-12-20T00:56:24;100653.59;;;0.28;100.00
9059;BME280;4564;42.034;25.834;2023-12-20T00:58:51;100655.31;;;0.29;100.00
9059;BME280;4564;42.034;25.834;2023-12-20T01:01:18;100653.44;;;0.18;100.00
9059;BME280;4564;42.034;25.834;2023-12-20T01:03:44;100657.50;;;0.11;100.00
9059;BME280;4564;42.034;25.834;2023-12-20T01:06:11;100650.28;;;0.00;100.00
9059;BME280;4564;42.034;25.834;2023-12-20T01:08:37;100644.56;;;-0.06;100.00
9059;BME280;4564;42.034;25.834;2023-12-20T01:11:05;100647.69;;;-0.12;100.00
9059;BME280;4564;42.034;25.834;2023-12-20T01:13:32;100631.53;;;-0.11;100.00
9059;BME280;4564;42.034;25.834;2023-12-20T01:15:58;100633.06;;;-0.19;100.00
9059;BME280;4564;42.034;25.834;2023-12-20T01:18:25;100628.41;;;-0.28;100.00
9059;BME280;4564;42.034;25.834;2023-12-20T01:20:51;100615.72;;;-0.37;100.00
9059;BME280;4564;42.034;25.834;2023-12-20T01:23:18;100613.06;;;-0.37;100.00
9059;BME280;4564;42.034;25.834;2023-12-20T01:25:45;100611.91;;;-0.33;100.00
9059;BME280;4564;42.034;25.834;2023-12-20T01:28:12;100613.63;;;-0.09;100.00
9059;BME280;4564;42.034;25.834;2023-12-20T01:30:39;100605.53;;;-0.07;100.00
9059;BME280;4564;42.034;25.834;2023-12-20T01:33:06;100607.75;;;-0.01;100.00
9059;BME280;4564;42.034;25.834;2023-12-20T01:35:32;100605.28;;;-0.04;100.00
9059;BME280;4564;42.034;25.834;2023-12-20T01:37:58;100609.59;;;-0.14;100.00
9059;BME280;4564;42.034;25.834;2023-12-20T01:40:24;100606.94;;;-0.27;100.00
9059;BME280;4564;42.034;25.834;2023-12-20T01:42:57;100592.22;;;-0.20;100.00
9059;BME280;4564;42.034;25.834;2023-12-20T01:45:25;100595.63;;;-0.18;100.00
9059;BME280;4564;42.034;25.834;2023-12-20T01:47:52;100588.50;;;-0.17;100.00
9059;BME280;4564;42.034;25.834;2023-12-20T01:50:18;100583.59;;;-0.23;100.00
9059;BME280;4564;42.034;25.834;2023-12-20T01:52:45;100575.44;;;-0.33;100.00
9059;BME280;4564;42.034;25.834;2023-12-20T01:55:12;100568.94;;;-0.42;100.00
9059;BME280;4564;42.034;25.834;2023-12-20T01:57:40;100563.59;;;-0.42;100.00
9059;BME280;4564;42.034;25.834;2023-12-20T02:00:07;100561.50;;;-0.49;100.00
9059;BME280;4564;42.034;25.834;2023-12-20T02:02:37;100571.84;;;-0.57;100.00
9059;BME280;4564;42.034;25.834;2023-12-20T02:05:05;100565.66;;;-0.58;100.00
9059;BME280;4564;42.034;25.834;2023-12-20T02:07:32;100560.66;;;-0.50;100.00
9059;BME280;4564;42.034;25.834;2023-12-20T02:09:59;100551.03;;;-0.39;100.00
9059;BME280;4564;42.034;25.834;2023-12-20T02:12:26;100551.47;;;-0.46;100.00
9059;BME280;4564;42.034;25.834;2023-12-20T02:14:51;100553.19;;;-0.45;100.00
9059;BME280;4564;42.034;25.834;2023-12-20T02:17:19;100551.16;;;-0.54;100.00
9059;BME280;4564;42.034;25.834;2023-12-20T02:19:47;100554.38;;;-0.49;100.00
9059;BME280;4564;42.034;25.834;2023-12-20T02:22:15;100550.94;;;-0.51;100.00
9059;BME280;4564;42.034;25.834;2023-12-20T02:24:42;100546.13;;;-0.46;100.00
9059;BME280;4564;42.034;25.834;2023-12-20T02:27:08;100546.69;;;-0.53;100.00
9059;BME280;4564;42.034;25.834;2023-12-20T02:29:35;100541.47;;;-0.55;100.00
9059;BME280;4564;42.034;25.834;2023-12-20T02:32:02;100538.06;;;-0.57;100.00
9059;BME280;4564;42.034;25.834;2023-12-20T02:34:29;100538.41;;;-0.61;100.00
9059;BME280;4564;42.034;25.834;2023-12-20T02:36:55;100540.72;;;-0.57;100.00
9059;BME280;4564;42.034;25.834;2023-12-20T02:39:23;100536.78;;;-0.64;100.00
9059;BME280;4564;42.034;25.834;2023-12-20T02:41:50;100533.59;;;-0.69;100.00
9059;BME280;4564;42.034;25.834;2023-12-20T02:44:16;100524.56;;;-0.66;100.00
9059;BME280;4564;42.034;25.834;2023-12-20T02:46:43;100525.28;;;-0.64;100.00
9059;BME280;4564;42.034;25.834;2023-12-20T02:49:09;100528.72;;;-0.75;100.00
9059;BME280;4564;42.034;25.834;2023-12-20T02:51:36;100526.38;;;-0.79;100.00
9059;BME280;4564;42.034;25.834;2023-12-20T02:54:03;100519.38;;;-0.93;100.00
9059;BME280;4564;42.034;25.834;2023-12-20T02:56:31;100527.56;;;-0.96;100.00
9059;BME280;4564;42.034;25.834;2023-12-20T02:58:58;100529.53;;;-0.98;100.00
9059;BME280;4564;42.034;25.834;2023-12-20T03:01:24;100530.25;;;-0.96;100.00
9059;BME280;4564;42.034;25.834;2023-12-20T03:03:51;100516.63;;;-1.04;100.00
9059;BME280;4564;42.034;25.834;2023-12-20T03:06:18;100509.50;;;-1.16;100.00
9059;BME280;4564;42.034;25.834;2023-12-20T03:08:44;100498.75;;;-1.15;100.00
9059;BME280;4564;42.034;25.834;2023-12-20T03:11:11;100491.72;;;-1.29;100.00
9059;BME280;4564;42.034;25.834;2023-12-20T03:13:39;100495.97;;;-1.39;100.00
9059;BME280;4564;42.034;25.834;2023-12-20T03:16:07;100493.22;;;-1.50;100.00
9059;BME280;4564;42.034;25.834;2023-12-20T03:18:34;100493.97;;;-1.48;100.00
9059;BME280;4564;42.034;25.834;2023-12-20T03:21:00;100488.56;;;-1.46;100.00
9059;BME280;4564;42.034;25.834;2023-12-20T03:23:27;100485.56;;;-1.42;100.00
9059;BME280;4564;42.034;25.834;2023-12-20T03:25:53;100494.28;;;-1.40;100.00
9059;BME280;4564;42.034;25.834;2023-12-20T03:28:20;100491.41;;;-1.37;100.00
9059;BME280;4564;42.034;25.834;2023-12-20T03:30:49;100496.19;;;-1.16;100.00
9059;BME280;4564;42.034;25.834;2023-12-20T03:33:16;100485.34;;;-1.13;100.00
9059;BME280;4564;42.034;25.834;2023-12-20T03:35:42;100491.09;;;-1.19;100.00
9059;BME280;4564;42.034;25.834;2023-12-20T03:38:09;100487.56;;;-1.33;100.00
9059;BME280;4564;42.034;25.834;2023-12-20T03:40:36;100481.50;;;-1.22;100.00
9059;BME280;4564;42.034;25.834;2023-12-20T03:43:02;100475.69;;;-0.91;100.00
9059;BME280;4564;42.034;25.834;2023-12-20T03:45:29;100466.66;;;-0.88;100.00
9059;BME280;4564;42.034;25.834;2023-12-20T03:47:57;100477.13;;;-0.74;100.00
9059;BME280;4564;42.034;25.834;2023-12-20T03:50:23;100483.34;;;-0.86;100.00
9059;BME280;4564;42.034;25.834;2023-12-20T03:52:50;100476.13;;;-0.97;100.00
9059;BME280;4564;42.034;25.834;2023-12-20T03:55:16;100476.34;;;-0.87;100.00
9059;BME280;4564;42.034;25.834;2023-12-20T03:57:43;100471.97;;;-0.88;100.00
9059;BME280;4564;42.034;25.834;2023-12-20T04:00:10;100470.78;;;-0.84;100.00
9059;BME280;4564;42.034;25.834;2023-12-20T04:02:36;100470.78;;;-0.84;100.00
9059;BME280;4564;42.034;25.834;2023-12-20T04:05:05;100474.66;;;-1.01;100.00
9059;BME280;4564;42.034;25.834;2023-12-20T04:07:31;100477.41;;;-1.02;100.00
9059;BME280;4564;42.034;25.834;2023-12-20T04:09:58;100476.97;;;-0.96;100.00
9059;BME280;4564;42.034;25.834;2023-12-20T04:12:24;100483.06;;;-0.94;100.00
9059;BME280;4564;42.034;25.834;2023-12-20T04:14:51;100488.38;;;-0.94;100.00
9059;BME280;4564;42.034;25.834;2023-12-20T04:17:18;100487.72;;;-0.85;100.00
9059;BME280;4564;42.034;25.834;2023-12-20T04:19:44;100480.41;;;-0.94;100.00
9059;BME280;4564;42.034;25.834;2023-12-20T04:22:12;100473.78;;;-1.01;100.00
9059;BME280;4564;42.034;25.834;2023-12-20T04:24:39;100475.69;;;-0.91;100.00
9059;BME280;4564;42.034;25.834;2023-12-20T04:27:07;100480.41;;;-0.94;100.00
9059;BME280;4564;42.034;25.834;2023-12-20T04:29:34;100478.94;;;-1.11;100.00
9059;BME280;4564;42.034;25.834;2023-12-20T04:32:00;100481.50;;;-1.09;100.00
9059;BME280;4564;42.034;25.834;2023-12-20T04:34:27;100483.50;;;-1.13;100.00
9059;BME280;4564;42.034;25.834;2023-12-20T04:36:53;100487.03;;;-1.12;100.00
9059;BME280;4564;42.034;25.834;2023-12-20T04:39:21;100486.69;;;-0.95;100.00
9059;BME280;4564;42.034;25.834;2023-12-20T04:41:48;100487.63;;;-0.96;100.00
9059;BME280;4564;42.034;25.834;2023-12-20T04:44:15;100484.25;;;-0.98;100.00
9059;BME280;4564;42.034;25.834;2023-12-20T04:46:42;100491.50;;;-1.13;100.00
9059;BME280;4564;42.034;25.834;2023-12-20T04:49:08;100486.41;;;-1.29;100.00
9059;BME280;4564;42.034;25.834;2023-12-20T04:51:35;100482.34;;;-1.21;100.00
9059;BME280;4564;42.034;25.834;2023-12-20T04:54:03;100476.78;;;-1.18;100.00
9059;BME280;4564;42.034;25.834;2023-12-20T04:56:31;100475.50;;;-1.13;100.00
9059;BME280;4564;42.034;25.834;2023-12-20T04:58:57;100475.75;;;-1.03;100.00
9059;BME280;4564;42.034;25.834;2023-12-20T05:01:24;100461.38;;;-1.13;100.00
9059;BME280;4564;42.034;25.834;2023-12-20T05:03:51;100457.00;;;-1.14;100.00
9059;BME280;4564;42.034;25.834;2023-12-20T05:06:17;100464.47;;;-1.19;100.00
9059;BME280;4564;42.034;25.834;2023-12-20T05:08:44;100449.38;;;-1.32;100.00
9059;BME280;4564;42.034;25.834;2023-12-20T05:11:10;100449.38;;;-1.32;100.00
9059;BME280;4564;42.034;25.834;2023-12-20T05:13:40;100453.22;;;-1.36;100.00
9059;BME280;4564;42.034;25.834;2023-12-20T05:16:07;100451.81;;;-1.54;100.00
9059;BME280;4564;42.034;25.834;2023-12-20T05:18:34;100449.81;;;-1.63;100.00
9059;BME280;4564;42.034;25.834;2023-12-20T05:21:01;100433.41;;;-1.70;100.00
9059;BME280;4564;42.034;25.834;2023-12-20T05:23:27;100435.44;;;-1.73;100.00
9059;BME280;4564;42.034;25.834;2023-12-20T05:25:54;100442.91;;;-1.78;100.00
9059;BME280;4564;42.034;25.834;2023-12-20T05:28:20;100437.88;;;-1.70;100.00
9059;BME280;4564;42.034;25.834;2023-12-20T05:30:48;100435.31;;;-1.59;100.00
9059;BME280;4564;42.034;25.834;2023-12-20T05:33:15;100439.28;;;-1.52;100.00
9059;BME280;4564;42.034;25.834;2023-12-20T05:35:41;100430.13;;;-1.48;100.00
9059;BME280;4564;42.034;25.834;2023-12-20T05:38:08;100433.19;;;-1.54;100.00
9059;BME280;4564;42.034;25.834;2023-12-20T05:40:34;100419.38;;;-1.59;100.00
9059;BME280;4564;42.034;25.834;2023-12-20T05:43:01;100420.41;;;-1.49;100.00
9059;BME280;4564;42.034;25.834;2023-12-20T05:45:28;100416.47;;;-1.31;100.00
9059;BME280;4564;42.034;25.834;2023-12-20T05:47:56;100420.19;;;-1.20;100.00
9059;BME280;4564;42.034;25.834;2023-12-20T05:50:22;100415.69;;;-1.20;100.00
9059;BME280;4564;42.034;25.834;2023-12-20T05:52:49;100410.03;;;-1.15;100.00
9059;BME280;4564;42.034;25.834;2023-12-20T05:55:15;100404.00;;;-1.30;100.00
9059;BME280;4564;42.034;25.834;2023-12-20T05:57:42;100403.59;;;-1.37;100.00
9059;BME280;4564;42.034;25.834;2023-12-20T06:00:09;100407.31;;;-1.39;100.00
9059;BME280;4564;42.034;25.834;2023-12-20T06:02:36;100401.47;;;-1.32;100.00
9059;BME280;4564;42.034;25.834;2023-12-20T06:05:05;100394.00;;;-1.27;100.00
9059;BME280;4564;42.034;25.834;2023-12-20T06:07:32;100400.66;;;-1.08;100.00
9059;BME280;4564;42.034;25.834;2023-12-20T06:09:58;100404.81;;;-1.17;100.00
9059;BME280;4564;42.034;25.834;2023-12-20T06:12:25;100404.44;;;-1.36;100.00
9059;BME280;4564;42.034;25.834;2023-12-20T06:14:52;100405.81;;;-1.31;100.00
9059;BME280;4564;42.034;25.834;2023-12-20T06:17:18;100406.63;;;-1.17;100.00
9059;BME280;4564;42.034;25.834;2023-12-20T06:19:45;100402.66;;;-0.99;100.00
9059;BME280;4564;42.034;25.834;2023-12-20T06:22:14;100407.66;;;-0.71;100.00
9059;BME280;4564;42.034;25.834;2023-12-20T06:24:41;100397.63;;;-0.44;100.00
9059;BME280;4564;42.034;25.834;2023-12-20T06:27:07;100382.22;;;-0.05;100.00
9059;BME280;4564;42.034;25.834;2023-12-20T06:29:33;100389.81;;;0.34;100.00
9059;BME280;4564;42.034;25.834;2023-12-20T06:32:00;100393.44;;;0.78;100.00
9059;BME280;4564;42.034;25.834;2023-12-20T06:34:27;100392.69;;;0.98;100.00
9059;BME280;4564;42.034;25.834;2023-12-20T06:36:53;100398.72;;;1.22;100.00
9059;BME280;4564;42.034;25.834;2023-12-20T06:39:21;100392.56;;;1.54;100.00
9059;BME280;4564;42.034;25.834;2023-12-20T06:41:48;100398.00;;;1.84;100.00
9059;BME280;4564;42.034;25.834;2023-12-20T06:44:14;100399.41;;;2.20;100.00
9059;BME280;4564;42.034;25.834;2023-12-20T06:46:41;100409.19;;;2.10;100.00
9059;BME280;4564;42.034;25.834;2023-12-20T06:49:07;100398.22;;;1.92;100.00
9059;BME280;4564;42.034;25.834;2023-12-20T06:51:34;100400.06;;;1.60;100.00
9059;BME280;4564;42.034;25.834;2023-12-20T06:54:00;100394.50;;;1.52;100.00
9059;BME280;4564;42.034;25.834;2023-12-20T06:56:29;100403.28;;;1.43;100.00
9059;BME280;4564;42.034;25.834;2023-12-20T06:58:55;100400.41;;;1.35;100.00
9059;BME280;4564;42.034;25.834;2023-12-20T07:01:22;100402.34;;;1.33;100.00
9059;BME280;4564;42.034;25.834;2023-12-20T07:03:49;100394.09;;;1.24;100.00
9059;BME280;4564;42.034;25.834;2023-12-20T07:06:15;100395.56;;;1.29;100.00
9059;BME280;4564;42.034;25.834;2023-12-20T07:08:42;100394.09;;;1.24;100.00
9059;BME280;4564;42.034;25.834;2023-12-20T07:11:08;100400.47;;;1.12;100.00
9059;BME280;4564;42.034;25.834;2023-12-20T07:13:38;100396.81;;;1.13;100.00
9059;BME280;4564;42.034;25.834;2023-12-20T07:16:05;100388.00;;;1.34;100.00
9059;BME280;4564;42.034;25.834;2023-12-20T07:18:32;100387.00;;;1.46;100.00
9059;BME280;4564;42.034;25.834;2023-12-20T07:20:58;100379.19;;;1.54;100.00
9059;BME280;4564;42.034;25.834;2023-12-20T07:23:25;100376.47;;;1.65;100.00
9059;BME280;4564;42.034;25.834;2023-12-20T07:25:52;100377.78;;;1.71;100.00
9059;BME280;4564;42.034;25.834;2023-12-20T07:28:18;100377.66;;;1.72;100.00
9059;BME280;4564;42.034;25.834;2023-12-20T07:30:46;100366.16;;;1.81;100.00
9059;BME280;4564;42.034;25.834;2023-12-20T07:33:12;100358.53;;;1.56;100.00
9059;BME280;4564;42.034;25.834;2023-12-20T07:35:39;100354.38;;;1.52;100.00
9059;BME280;4564;42.034;25.834;2023-12-20T07:38:06;100359.41;;;1.45;100.00
9059;BME280;4564;42.034;25.834;2023-12-20T07:40:32;100351.75;;;1.41;100.00
9059;BME280;4564;42.034;25.834;2023-12-20T07:42:59;100357.69;;;1.23;100.00
9059;BME280;4564;42.034;25.834;2023-12-20T07:45:25;100355.84;;;1.24;100.00
9059;BME280;4564;42.034;25.834;2023-12-20T07:47:53;100359.22;;;1.26;100.00
9059;BME280;4564;42.034;25.834;2023-12-20T07:50:20;100349.56;;;1.46;100.00
9059;BME280;4564;42.034;25.834;2023-12-20T07:52:47;100346.31;;;1.31;100.00
9059;BME280;4564;42.034;25.834;2023-12-20T07:55:13;100341.59;;;1.35;100.00
9059;BME280;4564;42.034;25.834;2023-12-20T07:57:40;100336.66;;;1.51;100.00
9059;BME280;4564;42.034;25.834;2023-12-20T08:00:07;100346.66;;;1.69;100.00
9059;BME280;4564;42.034;25.834;2023-12-20T08:02:33;100343.34;;;1.77;100.00
9059;BME280;4564;42.034;25.834;2023-12-20T08:05:01;100339.59;;;1.89;100.00
9059;BME280;4564;42.034;25.834;2023-12-20T08:07:28;100336.47;;;2.05;100.00
9059;BME280;4564;42.034;25.834;2023-12-20T08:09:54;100333.41;;;2.09;100.00
9059;BME280;4564;42.034;25.834;2023-12-20T08:12:22;100331.31;;;2.13;100.00
9059;BME280;4564;42.034;25.834;2023-12-20T08:14:48;100330.66;;;2.21;100.00
9059;BME280;4564;42.034;25.834;2023-12-20T08:17:15;100327.72;;;2.33;100.00
9059;BME280;4564;42.034;25.834;2023-12-20T08:19:44;100328.72;;;2.32;100.00
9059;BME280;4564;42.034;25.834;2023-12-20T08:22:12;100322.03;;;2.47;100.00
9059;BME280;4564;42.034;25.834;2023-12-20T08:24:38;100322.06;;;2.57;100.00
9059;BME280;4564;42.034;25.834;2023-12-20T08:27:05;100323.47;;;2.61;100.00
9059;BME280;4564;42.034;25.834;2023-12-20T08:29:32;100314.34;;;2.73;100.00
9059;BME280;4564;42.034;25.834;2023-12-20T08:31:58;100307.03;;;2.75;100.00
9059;BME280;4564;42.034;25.834;2023-12-20T08:34:25;100305.81;;;2.99;100.00
9059;BME280;4564;42.034;25.834;2023-12-20T08:36:52;100304.41;;;2.94;100.00
9059;BME280;4564;42.034;25.834;2023-12-20T08:39:20;100297.63;;;2.90;100.00
9059;BME280;4564;42.034;25.834;2023-12-20T08:41:46;100303.00;;;3.00;100.00
9059;BME280;4564;42.034;25.834;2023-12-20T08:44:13;100298.78;;;3.17;100.00
9059;BME280;4564;42.034;25.834;2023-12-20T08:46:40;100292.88;;;3.23;100.00
9059;BME280;4564;42.034;25.834;2023-12-20T08:49:06;100281.28;;;3.42;100.00
9059;BME280;4564;42.034;25.834;2023-12-20T08:51:34;100280.69;;;3.57;100.00
9059;BME280;4564;42.034;25.834;2023-12-20T08:54:00;100277.84;;;3.68;100.00
9059;BME280;4564;42.034;25.834;2023-12-20T08:56:28;100273.31;;;3.78;100.00
9059;BME280;4564;42.034;25.834;2023-12-20T08:58:55;100267.09;;;3.88;100.00
9059;BME280;4564;42.034;25.834;2023-12-20T09:01:22;100262.81;;;3.95;100.00
9059;BME280;4564;42.034;25.834;2023-12-20T09:03:48;100261.38;;;4.00;100.00
9059;BME280;4564;42.034;25.834;2023-12-20T09:06:15;100249.59;;;4.20;100.00
9059;BME280;4564;42.034;25.834;2023-12-20T09:08:41;100238.56;;;4.51;100.00
9059;BME280;4564;42.034;25.834;2023-12-20T09:11:08;100238.47;;;4.88;100.00
9059;BME280;4564;42.034;25.834;2023-12-20T09:13:36;100227.03;;;5.21;100.00
9059;BME280;4564;42.034;25.834;2023-12-20T09:16:03;100214.91;;;5.61;100.00
9059;BME280;4564;42.034;25.834;2023-12-20T09:18:30;100209.28;;;5.72;100.00
9059;BME280;4564;42.034;25.834;2023-12-20T09:20:56;100206.63;;;5.80;100.00
9059;BME280;4564;42.034;25.834;2023-12-20T09:23:23;100197.53;;;5.81;100.00
9059;BME280;4564;42.034;25.834;2023-12-20T09:25:50;100195.22;;;5.86;100.00
9059;BME280;4564;42.034;25.834;2023-12-20T09:28:16;100193.94;;;5.72;100.00
9059;BME280;4564;42.034;25.834;2023-12-20T09:30:44;100192.06;;;5.65;100.00
9059;BME280;4564;42.034;25.834;2023-12-20T09:33:11;100186.41;;;5.76;100.00
9059;BME280;4564;42.034;25.834;2023-12-20T09:35:38;100189.72;;;5.96;100.00
9059;BME280;4564;42.034;25.834;2023-12-20T09:38:04;100178.84;;;6.05;100.00
9059;BME280;4564;42.034;25.834;2023-12-20T09:40:31;100167.00;;;6.32;100.00
9059;BME280;4564;42.034;25.834;2023-12-20T09:42:59;100153.09;;;6.53;99.61
9059;BME280;4564;42.034;25.834;2023-12-20T09:45:28;100153.94;;;6.61;98.35
9059;BME280;4564;42.034;25.834;2023-12-20T09:47:58;100148.41;;;6.79;98.52
9059;BME280;4564;42.034;25.834;2023-12-20T09:50:25;100144.03;;;6.86;96.54
9059;BME280;4564;42.034;25.834;2023-12-20T09:52:52;100136.78;;;6.87;96.03
9059;BME280;4564;42.034;25.834;2023-12-20T09:55:21;100129.00;;;6.75;96.49
9059;BME280;4564;42.034;25.834;2023-12-20T09:57:48;100125.16;;;6.86;97.32
9059;BME280;4564;42.034;25.834;2023-12-20T10:00:15;100126.84;;;7.03;96.63
9059;BME280;4564;42.034;25.834;2023-12-20T10:02:45;100122.78;;;7.07;94.48
9059;BME280;4564;42.034;25.834;2023-12-20T10:05:16;100114.69;;;7.07;94.90
9059;BME280;4564;42.034;25.834;2023-12-20T10:07:44;100114.00;;;7.38;96.26
9059;BME280;4564;42.034;25.834;2023-12-20T10:10:12;100108.84;;;7.67;96.48
9059;BME280;4564;42.034;25.834;2023-12-20T10:12:39;100109.81;;;7.90;95.76
9059;BME280;4564;42.034;25.834;2023-12-20T10:15:06;100103.81;;;8.11;95.79
9059;BME280;4564;42.034;25.834;2023-12-20T10:17:32;100105.28;;;8.30;94.04
9059;BME280;4564;42.034;25.834;2023-12-20T10:19:59;100107.47;;;8.57;94.25
9059;BME280;4564;42.034;25.834;2023-12-20T10:22:27;100096.28;;;8.83;92.47
9059;BME280;4564;42.034;25.834;2023-12-20T10:24:56;100091.81;;;9.13;91.65
9059;BME280;4564;42.034;25.834;2023-12-20T10:27:22;100087.03;;;9.00;89.01
9059;BME280;4564;42.034;25.834;2023-12-20T10:29:51;100086.19;;;9.00;88.64
9059;BME280;4564;42.034;25.834;2023-12-20T10:32:21;100078.75;;;9.16;88.33
9059;BME280;4564;42.034;25.834;2023-12-20T10:34:48;100074.56;;;9.28;88.16
9059;BME280;4564;42.034;25.834;2023-12-20T10:37:15;100066.50;;;9.06;88.08
9059;BME280;4564;42.034;25.834;2023-12-20T10:39:43;100056.97;;;8.72;89.88
9059;BME280;4564;42.034;25.834;2023-12-20T10:42:10;100047.41;;;8.39;90.47
9059;BME280;4564;42.034;25.834;2023-12-20T10:44:37;100045.72;;;8.38;91.07
9059;BME280;4564;42.034;25.834;2023-12-20T10:47:04;100040.03;;;8.33;91.07
9059;BME280;4564;42.034;25.834;2023-12-20T10:49:31;100036.06;;;8.43;91.82
9059;BME280;4564;42.034;25.834;2023-12-20T10:51:58;100038.63;;;8.60;91.78
9059;BME280;4564;42.034;25.834;2023-12-20T10:54:26;100032.69;;;8.64;90.85
9059;BME280;4564;42.034;25.834;2023-12-20T10:56:54;100031.19;;;8.62;90.78
9059;BME280;4564;42.034;25.834;2023-12-20T10:59:20;100032.69;;;8.64;90.93
9059;BME280;4564;42.034;25.834;2023-12-20T11:01:49;100025.06;;;8.68;89.72
9059;BME280;4564;42.034;25.834;2023-12-20T11:04:18;100026.13;;;8.59;89.82
9059;BME280;4564;42.034;25.834;2023-12-20T11:06:49;100020.44;;;8.54;90.10
9059;BME280;4564;42.034;25.834;2023-12-20T11:09:19;100009.44;;;8.55;89.56
9059;BME280;4564;42.034;25.834;2023-12-20T11:11:59;100010.97;;;8.58;89.77
9059;BME280;4564;42.034;25.834;2023-12-20T11:14:29;100007.13;;;8.52;88.80
9059;BME280;4564;42.034;25.834;2023-12-20T11:17:07;99999.47;;;8.56;88.87
9059;BME280;4564;42.034;25.834;2023-12-20T11:19:35;99995.25;;;8.53;88.78
9059;BME280;4564;42.034;25.834;2023-12-20T11:22:03;99990.63;;;8.62;88.13
9059;BME280;4564;42.034;25.834;2023-12-20T11:24:30;99981.00;;;8.59;88.44
9059;BME280;4564;42.034;25.834;2023-12-20T11:26:59;99978.97;;;8.61;89.16
9059;BME280;4564;42.034;25.834;2023-12-20T11:29:29;99974.75;;;8.59;88.69
9059;BME280;4564;42.034;25.834;2023-12-20T11:31:56;99972.94;;;8.36;89.25
9059;BME280;4564;42.034;25.834;2023-12-20T11:34:23;99969.84;;;8.39;89.64
9059;BME280;4564;42.034;25.834;2023-12-20T11:36:56;99963.81;;;8.29;89.79
9059;BME280;4564;42.034;25.834;2023-12-20T11:39:23;99969.09;;;8.23;89.54
9059;BME280;4564;42.034;25.834;2023-12-20T11:41:49;99959.22;;;8.38;90.16
9059;BME280;4564;42.034;25.834;2023-12-20T11:44:18;99951.97;;;8.53;90.15
9059;BME280;4564;42.034;25.834;2023-12-20T11:46:45;99957.78;;;8.50;90.06
9059;BME280;4564;42.034;25.834;2023-12-20T11:49:12;99943.19;;;8.36;90.44
9059;BME280;4564;42.034;25.834;2023-12-20T11:51:40;99935.81;;;8.22;90.18
9059;BME280;4564;42.034;25.834;2023-12-20T11:54:06;99934.44;;;8.26;90.47
9059;BME280;4564;42.034;25.834;2023-12-20T11:56:34;99932.56;;;8.27;90.87
9059;BME280;4564;42.034;25.834;2023-12-20T11:59:02;99929.28;;;8.17;91.53
9059;BME280;4564;42.034;25.834;2023-12-20T12:01:30;99919.97;;;8.19;91.90
9059;BME280;4564;42.034;25.834;2023-12-20T12:04:03;99908.69;;;8.16;92.02
9059;BME280;4564;42.034;25.834;2023-12-20T12:06:30;99919.59;;;8.22;91.86
9059;BME280;4564;42.034;25.834;2023-12-20T12:08:57;99911.31;;;8.24;92.09
9059;BME280;4564;42.034;25.834;2023-12-20T12:11:23;99904.78;;;8.18;92.12
9059;BME280;4564;42.034;25.834;2023-12-20T12:13:50;99896.09;;;8.08;93.00
9059;BME280;4564;42.034;25.834;2023-12-20T12:16:17;99898.72;;;8.16;93.34
9059;BME280;4564;42.034;25.834;2023-12-20T12:18:45;99895.91;;;8.32;93.32
9059;BME280;4564;42.034;25.834;2023-12-20T12:21:18;99891.34;;;8.48;92.70
9059;BME280;4564;42.034;25.834;2023-12-20T12:23:45;99887.00;;;8.61;92.60
9059;BME280;4564;42.034;25.834;2023-12-20T12:26:11;99895.88;;;8.70;92.21
9059;BME280;4564;42.034;25.834;2023-12-20T12:28:39;99878.16;;;8.82;92.32
9059;BME280;4564;42.034;25.834;2023-12-20T12:31:06;99873.78;;;8.96;92.31
9059;BME280;4564;42.034;25.834;2023-12-20T12:33:32;99874.97;;;9.08;92.15
9059;BME280;4564;42.034;25.834;2023-12-20T12:36:01;99869.28;;;9.17;91.80
9059;BME280;4564;42.034;25.834;2023-12-20T12:38:29;99857.13;;;9.28;90.92
9059;BME280;4564;42.034;25.834;2023-12-20T12:40:56;99860.88;;;9.27;90.69
9059;BME280;4564;42.034;25.834;2023-12-20T12:43:23;99844.91;;;9.32;90.76
9059;BME280;4564;42.034;25.834;2023-12-20T12:45:50;99854.38;;;9.43;90.02
9059;BME280;4564;42.034;25.834;2023-12-20T12:48:17;99851.09;;;9.47;90.47
9059;BME280;4564;42.034;25.834;2023-12-20T12:50:44;99855.59;;;9.40;90.44
9059;BME280;4564;42.034;25.834;2023-12-20T12:53:11;99846.31;;;9.28;91.01
9059;BME280;4564;42.034;25.834;2023-12-20T12:55:38;99837.06;;;9.22;91.60
9059;BME280;4564;42.034;25.834;2023-12-20T12:58:05;99848.13;;;9.06;92.52